Esko, Minnesota
Current Conditions -  °F | °C
As of 7:16 AM on Saturday 25 Oct 2014 (Local Time) from KCOQ Reporting Station
Clear Clear  
Wind Chill: 42°   Ceiling: Unl
Heat Index: 46°   Visibility: 10mi
Dew Point: 30°   Wind: 9mph
Humidity: 53%   Direction: 280°W
Pressure: 29.9"   Gusts: 17mph
Location:  46.71°N, 92.36°W
Report Text: KCOQ 251216Z AUTO 28008G15KT 10SM CLR 08/M01 A2990 RMK AO2
Loading
Personal Weather Stations






























Interactive Weather Map
Tropical Storm Tracking
New forecast layout! Learn more

10-Day Weather Forecast

Advertisements
Track Severe Weather on mobile